createdAt,value
2022-07-29T00:02:23.042Z,31.20
2022-07-29T00:05:26.254Z,31.31
2022-07-29T00:08:29.487Z,31.68
2022-07-29T00:11:32.671Z,31.31
2022-07-29T00:14:35.877Z,31.02
2022-07-29T00:17:39.100Z,30.48
2022-07-29T00:20:42.151Z,30.60
2022-07-29T00:23:45.334Z,31.02
2022-07-29T00:26:48.548Z,30.94
2022-07-29T00:29:51.646Z,30.61
2022-07-29T00:32:54.741Z,30.94
2022-07-29T00:35:58.344Z,30.95
2022-07-29T00:39:01.444Z,30.89
2022-07-29T00:42:06.005Z,30.78
2022-07-29T00:45:09.324Z,30.78
2022-07-29T00:48:12.583Z,30.67
2022-07-29T00:51:15.925Z,30.49
2022-07-29T00:54:19.402Z,30.63
2022-07-29T00:57:22.953Z,30.61
2022-07-29T01:00:27.739Z,30.30
2022-07-29T01:03:33.814Z,30.41
2022-07-29T01:06:36.952Z,29.76
2022-07-29T01:09:45.799Z,30.11
2022-07-29T01:12:53.491Z,30.32
2022-07-29T01:16:08.856Z,30.12
2022-07-29T01:19:58.997Z,30.15
2022-07-29T01:23:23.239Z,29.84
2022-07-29T01:26:48.881Z,29.86
2022-07-29T01:29:57.218Z,29.72
2022-07-29T01:33:07.088Z,29.68
2022-07-29T01:36:16.851Z,30.03
2022-07-29T01:39:33.410Z,29.75
2022-07-29T01:42:36.589Z,29.50
2022-07-29T01:45:45.577Z,29.51
2022-07-29T01:48:58.753Z,29.68
2022-07-29T01:52:07.571Z,30.03
2022-07-29T01:55:15.549Z,29.38
2022-07-29T01:58:20.253Z,29.40
2022-07-29T02:01:25.321Z,29.62
2022-07-29T02:04:30.425Z,29.65
2022-07-29T02:07:34.726Z,29.72
2022-07-29T02:10:41.131Z,29.80
2022-07-29T02:13:48.293Z,29.19
2022-07-29T02:16:54.907Z,29.27
2022-07-29T02:20:04.127Z,29.26
2022-07-29T02:23:08.405Z,28.97
2022-07-29T02:26:11.556Z,28.96
2022-07-29T02:29:16.081Z,29.36
2022-07-29T02:32:19.738Z,29.07
2022-07-29T02:35:23.745Z,29.33
2022-07-29T02:38:29.325Z,29.33
2022-07-29T02:41:52.673Z,29.36
2022-07-29T02:44:55.904Z,29.25
2022-07-29T02:48:03.442Z,29.12
2022-07-29T02:51:43.390Z,28.65
2022-07-29T02:54:46.534Z,28.39
2022-07-29T02:58:01.540Z,28.17
2022-07-29T03:01:06.656Z,28.63
2022-07-29T03:04:10.488Z,28.64
2022-07-29T03:07:15.213Z,28.40
2022-07-29T03:10:21.429Z,28.25
2022-07-29T03:13:24.856Z,28.14
2022-07-29T03:16:28.087Z,28.25
2022-07-29T03:19:32.250Z,28.08
2022-07-29T03:22:40.406Z,27.81
2022-07-29T03:25:44.886Z,27.67
2022-07-29T03:28:47.994Z,27.85
2022-07-29T03:31:51.179Z,27.67
2022-07-29T03:34:54.392Z,27.69
2022-07-29T03:38:00.024Z,27.92
2022-07-29T03:41:07.772Z,28.17
2022-07-29T03:44:11.152Z,28.45
2022-07-29T03:47:15.384Z,28.44
2022-07-29T03:50:19.162Z,28.56
2022-07-29T03:53:22.713Z,28.48
2022-07-29T03:56:26.884Z,28.61
2022-07-29T03:59:30.227Z,28.54
2022-07-29T04:02:34.225Z,28.58
2022-07-29T04:05:37.559Z,28.43
2022-07-29T04:08:40.682Z,28.32
2022-07-29T04:12:01.840Z,28.17
2022-07-29T04:15:07.454Z,28.18
2022-07-29T04:18:10.508Z,28.04
2022-07-29T04:21:16.030Z,28.30
2022-07-29T04:24:19.838Z,27.87
2022-07-29T04:27:23.401Z,27.75
2022-07-29T04:30:26.423Z,27.78
2022-07-29T04:33:29.809Z,27.85
2022-07-29T04:36:32.853Z,27.46
2022-07-29T04:39:35.984Z,27.20
2022-07-29T04:42:43.976Z,27.36
2022-07-29T04:45:52.530Z,27.30
2022-07-29T04:48:55.714Z,27.49
2022-07-29T04:51:58.897Z,27.58
2022-07-29T04:55:02.972Z,27.96
2022-07-29T04:58:06.256Z,28.01
2022-07-29T05:01:09.304Z,28.08
2022-07-29T05:04:13.270Z,27.92
2022-07-29T05:07:16.729Z,27.66
2022-07-29T05:10:19.850Z,27.54
2022-07-29T05:13:23.683Z,27.37
2022-07-29T05:16:26.952Z,27.60
2022-07-29T05:19:30.153Z,27.77
2022-07-29T05:22:33.642Z,27.73
2022-07-29T05:25:40.806Z,27.89
2022-07-29T05:28:47.785Z,27.77
2022-07-29T05:31:50.839Z,27.67
2022-07-29T05:34:53.938Z,27.69
2022-07-29T05:37:56.999Z,27.62
2022-07-29T05:41:00.863Z,27.83
2022-07-29T05:44:05.002Z,27.75
2022-07-29T05:47:08.469Z,27.74
2022-07-29T05:50:11.574Z,27.79
2022-07-29T05:53:19.364Z,27.62
2022-07-29T05:56:23.464Z,27.39
2022-07-29T05:59:30.565Z,27.35
2022-07-29T06:02:34.019Z,27.25
2022-07-29T06:05:37.169Z,27.33
2022-07-29T06:08:40.343Z,27.40
2022-07-29T06:11:46.935Z,27.08
2022-07-29T06:14:54.242Z,27.31
2022-07-29T06:17:59.405Z,27.37
2022-07-29T06:21:09.520Z,27.36
2022-07-29T06:24:13.688Z,27.11
2022-07-29T06:27:17.246Z,27.26
2022-07-29T06:30:20.405Z,27.17
2022-07-29T06:33:23.595Z,26.89
2022-07-29T06:36:27.660Z,26.72
2022-07-29T06:39:31.095Z,26.76
2022-07-29T06:42:34.184Z,26.67
2022-07-29T06:45:37.244Z,26.63
2022-07-29T06:48:41.451Z,26.69
2022-07-29T06:51:44.595Z,26.47
2022-07-29T06:54:47.708Z,26.64
2022-07-29T06:57:52.799Z,27.04
2022-07-29T07:00:56.258Z,27.06
2022-07-29T07:03:59.292Z,27.10
2022-07-29T07:07:02.700Z,27.00
2022-07-29T07:10:06.478Z,27.06
2022-07-29T07:13:09.771Z,26.95
2022-07-29T07:16:15.100Z,27.18
2022-07-29T07:19:18.286Z,27.17
2022-07-29T07:22:22.831Z,26.98
2022-07-29T07:25:25.981Z,26.96
2022-07-29T07:28:30.881Z,26.94
2022-07-29T07:31:34.079Z,26.97
2022-07-29T07:34:37.203Z,27.02
2022-07-29T07:37:40.843Z,27.05
2022-07-29T07:40:44.055Z,27.03
2022-07-29T07:43:47.430Z,26.87
2022-07-29T07:46:50.624Z,26.81
2022-07-29T07:49:54.496Z,26.73
2022-07-29T07:52:57.806Z,26.63
2022-07-29T07:56:10.898Z,26.53
2022-07-29T07:59:14.730Z,26.59
2022-07-29T08:02:17.908Z,26.58
2022-07-29T08:05:21.136Z,26.58
2022-07-29T08:08:24.351Z,26.66
2022-07-29T08:11:27.427Z,26.97
2022-07-29T08:14:33.241Z,26.98
2022-07-29T08:17:36.339Z,27.06
2022-07-29T08:20:40.621Z,26.18
2022-07-29T08:23:46.201Z,26.17
2022-07-29T08:26:52.738Z,26.45
2022-07-29T08:29:55.871Z,26.59
2022-07-29T08:32:58.970Z,26.59
2022-07-29T08:36:02.100Z,26.54
2022-07-29T08:39:05.347Z,26.63
2022-07-29T08:42:08.629Z,26.42
2022-07-29T08:45:12.012Z,26.71
2022-07-29T08:48:16.502Z,26.61
2022-07-29T08:51:21.377Z,25.73
2022-07-29T08:54:25.441Z,26.17
2022-07-29T08:57:29.062Z,26.23
2022-07-29T09:00:34.811Z,26.27
2022-07-29T09:03:41.661Z,26.30
2022-07-29T09:06:46.766Z,26.26
2022-07-29T09:09:49.976Z,26.07
2022-07-29T09:12:53.836Z,26.26
2022-07-29T09:15:57.314Z,26.28
2022-07-29T09:19:00.635Z,26.56
2022-07-29T09:22:05.839Z,26.57
2022-07-29T09:25:09.177Z,26.46
2022-07-29T09:28:18.521Z,26.57
2022-07-29T09:31:38.246Z,26.57
2022-07-29T09:34:41.367Z,26.59
2022-07-29T09:37:45.753Z,26.44
2022-07-29T09:41:05.975Z,26.43
2022-07-29T09:44:09.681Z,26.49
2022-07-29T09:47:12.930Z,26.52
2022-07-29T09:50:20.761Z,26.22
2022-07-29T09:53:36.958Z,26.32
2022-07-29T09:56:42.550Z,26.38
2022-07-29T10:00:01.112Z,26.38
2022-07-29T10:03:04.304Z,26.35
2022-07-29T10:06:10.076Z,26.23
2022-07-29T10:09:13.438Z,26.24
2022-07-29T10:12:19.125Z,26.34
2022-07-29T10:15:27.488Z,26.19
2022-07-29T10:18:33.772Z,26.22
2022-07-29T10:21:36.970Z,25.87
2022-07-29T10:24:40.673Z,26.13
2022-07-29T10:27:44.832Z,26.32
2022-07-29T10:30:48.951Z,26.41
2022-07-29T10:34:18.862Z,26.46
2022-07-29T10:37:28.463Z,26.22
2022-07-29T10:41:24.498Z,26.08
2022-07-29T10:44:28.714Z,25.82
2022-07-29T10:47:35.707Z,25.80
2022-07-29T10:51:01.329Z,25.92
2022-07-29T10:54:07.174Z,26.11
2022-07-29T10:57:25.994Z,25.97
2022-07-29T11:00:49.678Z,26.14
2022-07-29T11:03:53.793Z,26.15
2022-07-29T11:07:06.457Z,26.12
2022-07-29T11:10:12.953Z,26.13
2022-07-29T11:13:44.840Z,25.87
2022-07-29T11:17:07.346Z,25.66
2022-07-29T11:20:36.645Z,25.92
2022-07-29T11:23:42.853Z,25.92
2022-07-29T11:26:46.159Z,25.98
2022-07-29T11:29:58.568Z,25.79
2022-07-29T11:33:01.938Z,25.58
2022-07-29T11:36:16.785Z,25.72
2022-07-29T11:39:36.238Z,25.74
2022-07-29T11:42:42.109Z,25.70
2022-07-29T11:45:48.298Z,25.93
2022-07-29T11:48:52.045Z,25.81
2022-07-29T11:51:57.425Z,25.76
2022-07-29T11:55:09.918Z,25.57
2022-07-29T11:58:13.384Z,25.71
2022-07-29T12:01:20.648Z,25.70
2022-07-29T12:04:23.903Z,25.72
2022-07-29T12:07:34.792Z,26.08
2022-07-29T12:10:39.507Z,26.03
2022-07-29T12:13:44.982Z,26.22
2022-07-29T12:16:48.197Z,26.23
2022-07-29T12:19:51.300Z,26.23
2022-07-29T12:22:54.920Z,26.21
2022-07-29T12:25:59.897Z,26.18
2022-07-29T12:29:04.074Z,26.53
2022-07-29T12:32:19.519Z,26.13
2022-07-29T12:35:23.101Z,26.10
2022-07-29T12:38:26.775Z,25.89
2022-07-29T12:41:30.740Z,26.14
2022-07-29T12:44:50.216Z,26.64
2022-07-29T12:47:53.619Z,26.43
2022-07-29T12:51:02.442Z,26.49
2022-07-29T12:54:08.784Z,26.69
2022-07-29T12:57:20.056Z,26.87
2022-07-29T13:00:25.508Z,27.24
2022-07-29T13:03:28.762Z,27.42
2022-07-29T13:06:49.705Z,27.36
2022-07-29T13:09:55.551Z,27.15
2022-07-29T13:13:11.903Z,27.15
2022-07-29T13:16:15.328Z,27.26
2022-07-29T13:19:19.913Z,27.10
2022-07-29T13:22:25.503Z,27.41
2022-07-29T13:25:30.901Z,27.55
2022-07-29T13:28:34.009Z,27.49
2022-07-29T13:31:37.435Z,27.50
2022-07-29T13:34:40.897Z,28.14
2022-07-29T13:37:44.089Z,27.44
2022-07-29T13:40:47.285Z,27.66
2022-07-29T13:43:50.310Z,27.76
2022-07-29T13:46:55.793Z,28.25
2022-07-29T13:49:58.969Z,27.97
2022-07-29T13:53:02.044Z,28.25
2022-07-29T13:56:05.485Z,28.59
2022-07-29T13:59:08.691Z,28.47
2022-07-29T14:02:15.744Z,28.65
2022-07-29T14:05:18.961Z,29.44
2022-07-29T14:08:22.025Z,29.58
2022-07-29T14:11:27.203Z,29.46
2022-07-29T14:14:15.308Z,29.09
2022-07-29T14:17:18.491Z,29.08
2022-07-29T14:20:21.939Z,29.25
2022-07-29T14:23:25.095Z,28.88
2022-07-29T14:26:29.747Z,29.36
2022-07-29T14:29:37.817Z,29.46
2022-07-29T14:32:41.488Z,29.83
2022-07-29T14:35:44.669Z,29.94
2022-07-29T14:38:47.834Z,29.63
2022-07-29T14:41:53.210Z,29.82
2022-07-29T14:44:56.258Z,29.49
2022-07-29T14:47:59.424Z,29.94
2022-07-29T14:51:04.918Z,29.92
2022-07-29T14:54:08.465Z,29.61
2022-07-29T14:57:11.702Z,30.05
2022-07-29T15:00:15.149Z,30.25
2022-07-29T15:03:23.804Z,30.06
2022-07-29T15:06:28.171Z,30.11
2022-07-29T15:09:31.298Z,30.72
2022-07-29T15:12:34.797Z,30.11
2022-07-29T15:15:37.943Z,31.33
2022-07-29T15:18:41.037Z,30.94
2022-07-29T15:21:48.119Z,31.15
2022-07-29T15:24:52.177Z,31.28
2022-07-29T15:28:00.576Z,31.62
2022-07-29T15:31:04.511Z,31.28
2022-07-29T15:34:07.555Z,31.24
2022-07-29T15:37:10.693Z,31.35
2022-07-29T15:40:13.850Z,31.63
2022-07-29T15:43:16.939Z,31.36
2022-07-29T15:46:21.630Z,31.10
2022-07-29T15:49:24.882Z,31.40
2022-07-29T15:52:28.023Z,32.42
2022-07-29T15:55:31.126Z,32.64
2022-07-29T15:58:34.148Z,32.56
2022-07-29T16:01:37.239Z,31.97
2022-07-29T16:04:48.239Z,31.96
2022-07-29T16:07:51.338Z,31.67
2022-07-29T16:10:54.402Z,31.94
2022-07-29T16:13:59.052Z,32.17
2022-07-29T16:17:04.594Z,32.30
2022-07-29T16:20:08.309Z,32.44
2022-07-29T16:23:14.245Z,32.74
2022-07-29T16:26:17.548Z,33.19
2022-07-29T16:29:22.884Z,32.78
2022-07-29T16:32:25.969Z,32.05
2022-07-29T16:35:39.860Z,32.12
2022-07-29T16:38:47.212Z,31.35
2022-07-29T16:41:50.733Z,32.02
2022-07-29T16:44:53.968Z,32.13
2022-07-29T16:48:00.354Z,31.84
2022-07-29T16:51:04.468Z,32.71
2022-07-29T16:54:07.657Z,33.00
2022-07-29T16:57:10.961Z,34.44
2022-07-29T17:00:15.249Z,33.08
2022-07-29T17:03:18.528Z,33.78
2022-07-29T17:06:21.575Z,33.81
2022-07-29T17:09:25.997Z,33.74
2022-07-29T17:12:29.042Z,33.90
2022-07-29T17:15:32.184Z,34.39
2022-07-29T17:18:39.596Z,34.29
2022-07-29T17:21:46.261Z,34.30
2022-07-29T17:24:52.538Z,34.36
2022-07-29T17:28:00.503Z,34.23
2022-07-29T17:31:04.057Z,34.90
2022-07-29T17:34:07.173Z,35.10
2022-07-29T17:37:11.745Z,35.68
2022-07-29T17:40:14.893Z,35.47
2022-07-29T17:43:18.046Z,36.03
2022-07-29T17:46:22.423Z,36.45
2022-07-29T17:49:25.577Z,36.04
2022-07-29T17:52:28.890Z,36.69
2022-07-29T17:55:31.965Z,36.54
2022-07-29T17:58:35.325Z,36.24
2022-07-29T18:01:39.153Z,34.68
2022-07-29T18:04:42.318Z,35.41
2022-07-29T18:07:47.454Z,36.34
2022-07-29T18:10:51.007Z,35.08
2022-07-29T18:13:54.079Z,35.28
2022-07-29T18:16:57.483Z,34.51
2022-07-29T18:20:02.259Z,34.76
2022-07-29T18:23:05.493Z,35.70
2022-07-29T18:26:08.688Z,35.67
2022-07-29T18:29:11.781Z,36.69
2022-07-29T18:32:14.836Z,35.64
2022-07-29T18:35:18.294Z,34.89
2022-07-29T18:38:21.466Z,35.15
2022-07-29T18:41:24.588Z,35.93
2022-07-29T18:44:27.632Z,36.90
2022-07-29T18:47:32.213Z,35.43
2022-07-29T18:50:36.001Z,36.17
2022-07-29T18:53:39.343Z,37.07
2022-07-29T18:56:42.442Z,36.67
2022-07-29T18:59:45.739Z,35.91
2022-07-29T19:02:49.278Z,35.86
2022-07-29T19:05:52.566Z,35.88
2022-07-29T19:08:55.619Z,36.15
2022-07-29T19:12:03.241Z,35.43
2022-07-29T19:15:08.603Z,35.23
2022-07-29T19:18:11.789Z,34.96
2022-07-29T19:21:15.432Z,35.48
2022-07-29T19:24:20.699Z,36.40
2022-07-29T19:27:23.766Z,36.94
2022-07-29T19:30:26.913Z,37.37
2022-07-29T19:33:30.291Z,37.18
2022-07-29T19:36:33.455Z,35.53
2022-07-29T19:39:36.707Z,35.96
2022-07-29T19:42:40.041Z,36.09
2022-07-29T19:45:44.234Z,36.14
2022-07-29T19:48:48.127Z,36.16
2022-07-29T19:51:53.304Z,36.22
2022-07-29T19:54:57.093Z,35.93
2022-07-29T19:58:00.237Z,36.00
2022-07-29T20:01:10.335Z,35.72
2022-07-29T20:04:13.921Z,35.94
2022-07-29T20:07:17.197Z,35.73
2022-07-29T20:10:22.652Z,35.92
2022-07-29T20:13:25.771Z,35.34
2022-07-29T20:16:29.016Z,35.29
2022-07-29T20:19:32.191Z,34.92
2022-07-29T20:22:35.987Z,35.22
2022-07-29T20:25:41.069Z,34.50
2022-07-29T20:28:48.902Z,33.57
2022-07-29T20:31:56.454Z,33.50
2022-07-29T20:34:59.998Z,32.92
2022-07-29T20:38:03.114Z,31.55
2022-07-29T20:41:08.781Z,30.27
2022-07-29T20:44:11.893Z,28.41
2022-07-29T20:47:15.045Z,27.00
2022-07-29T20:50:25.869Z,26.57
2022-07-29T20:53:31.983Z,26.81
2022-07-29T20:56:35.439Z,27.20
2022-07-29T20:59:41.645Z,27.48
2022-07-29T21:02:48.614Z,26.85
2022-07-29T21:05:51.861Z,27.15
2022-07-29T21:08:54.968Z,27.18
2022-07-29T21:11:58.043Z,27.18
2022-07-29T21:15:01.319Z,26.98
2022-07-29T21:18:05.027Z,27.52
2022-07-29T21:21:08.217Z,27.76
2022-07-29T21:24:12.209Z,27.78
2022-07-29T21:27:20.773Z,27.10
2022-07-29T21:30:24.481Z,27.80
2022-07-29T21:33:28.794Z,27.16
2022-07-29T21:36:58.523Z,27.24
2022-07-29T21:39:57.134Z,27.18
2022-07-29T21:43:00.237Z,27.35
2022-07-29T21:46:03.465Z,27.50
2022-07-29T21:49:06.686Z,27.42
2022-07-29T21:52:09.828Z,27.39
2022-07-29T21:55:16.452Z,27.65
2022-07-29T21:58:22.417Z,27.61
2022-07-29T22:01:39.439Z,27.65
2022-07-29T22:04:42.777Z,27.78
2022-07-29T22:07:55.799Z,27.53
2022-07-29T22:11:00.223Z,27.49
2022-07-29T22:14:04.797Z,27.65
2022-07-29T22:17:08.157Z,27.32
2022-07-29T22:20:11.742Z,27.47
2022-07-29T22:23:14.857Z,27.38
2022-07-29T22:26:18.046Z,27.52
2022-07-29T22:29:23.748Z,27.43
2022-07-29T22:32:26.837Z,27.38
2022-07-29T22:35:30.027Z,27.38
2022-07-29T22:38:34.683Z,27.40
2022-07-29T22:41:37.954Z,27.25
2022-07-29T22:44:41.158Z,27.35
2022-07-29T22:47:48.337Z,27.51
2022-07-29T22:50:54.177Z,27.45
2022-07-29T22:53:57.342Z,27.43
2022-07-29T22:57:00.659Z,27.14
2022-07-29T23:00:06.116Z,27.10
2022-07-29T23:03:09.233Z,27.34
2022-07-29T23:06:14.886Z,27.11
2022-07-29T23:09:17.931Z,27.03
2022-07-29T23:12:21.127Z,27.16
2022-07-29T23:15:25.442Z,27.33
2022-07-29T23:18:28.602Z,27.31
2022-07-29T23:21:32.707Z,27.36
2022-07-29T23:24:35.850Z,27.37
2022-07-29T23:27:41.526Z,27.21
2022-07-29T23:30:44.615Z,27.22
2022-07-29T23:33:47.700Z,27.01
2022-07-29T23:36:50.845Z,26.81
2022-07-29T23:39:55.921Z,26.75
2022-07-29T23:42:59.078Z,26.95
2022-07-29T23:46:02.330Z,26.89
2022-07-29T23:49:05.935Z,26.71
2022-07-29T23:52:09.218Z,26.94
2022-07-29T23:55:36.406Z,27.03
2022-07-29T23:58:36.485Z,26.90
